createdAt,value
2023-02-07T00:01:49.041Z,0.30
2023-02-07T00:04:15.734Z,0.30
2023-02-07T00:06:42.575Z,0.32
2023-02-07T00:09:11.670Z,0.40
2023-02-07T00:11:40.839Z,0.47
2023-02-07T00:14:09.688Z,0.30
2023-02-07T00:16:40.493Z,0.30
2023-02-07T00:19:09.282Z,0.40
2023-02-07T00:21:36.557Z,0.40
2023-02-07T00:24:03.404Z,0.40
2023-02-07T00:26:30.228Z,0.35
2023-02-07T00:28:57.802Z,0.30
2023-02-07T00:31:30.422Z,0.40
2023-02-07T00:34:01.152Z,0.40
2023-02-07T00:36:29.990Z,0.40
2023-02-07T00:38:59.258Z,0.40
2023-02-07T00:41:26.701Z,0.30
2023-02-07T00:43:53.836Z,0.40
2023-02-07T00:46:21.444Z,0.40
2023-02-07T00:48:48.290Z,0.40
2023-02-07T00:51:15.172Z,0.30
2023-02-07T00:53:44.215Z,0.30
2023-02-07T00:56:11.904Z,0.40
2023-02-07T00:58:38.922Z,0.40
2023-02-07T01:01:05.862Z,0.30
2023-02-07T01:03:33.172Z,0.30
2023-02-07T01:05:59.947Z,0.40
2023-02-07T01:08:26.852Z,0.40
2023-02-07T01:10:53.637Z,0.40
2023-02-07T01:13:20.648Z,0.30
2023-02-07T01:15:50.156Z,0.40
2023-02-07T01:18:17.102Z,0.40
2023-02-07T01:20:43.788Z,0.30
2023-02-07T01:23:11.261Z,0.40
2023-02-07T01:25:38.752Z,0.40
2023-02-07T01:28:05.916Z,0.40
2023-02-07T01:30:32.728Z,0.30
2023-02-07T01:32:59.534Z,0.30
2023-02-07T01:35:26.345Z,0.40
2023-02-07T01:37:53.114Z,0.40
2023-02-07T01:40:20.118Z,0.43
2023-02-07T01:42:46.837Z,0.30
2023-02-07T01:45:26.101Z,0.30
2023-02-07T01:47:55.324Z,0.40
2023-02-07T01:50:22.743Z,0.40
2023-02-07T01:52:49.737Z,0.50
2023-02-07T01:55:21.052Z,0.30
2023-02-07T01:57:47.921Z,0.40
2023-02-07T02:00:16.203Z,0.40
2023-02-07T02:02:43.942Z,0.40
2023-02-07T02:05:11.757Z,0.50
2023-02-07T02:07:39.906Z,0.30
2023-02-07T02:10:14.747Z,0.30
2023-02-07T02:13:06.524Z,0.40
2023-02-07T02:15:53.001Z,0.40
2023-02-07T02:18:31.402Z,0.40
2023-02-07T02:21:06.952Z,0.40
2023-02-07T02:24:01.465Z,0.30
2023-02-07T02:26:54.507Z,0.30
2023-02-07T02:29:40.158Z,0.30
2023-02-07T02:32:23.449Z,0.35
2023-02-07T02:35:01.348Z,0.40
2023-02-07T02:37:42.828Z,0.40
2023-02-07T02:40:18.839Z,0.50
2023-02-07T02:42:55.129Z,0.40
2023-02-07T02:45:32.880Z,0.30
2023-02-07T02:48:02.302Z,0.38
2023-02-07T02:50:30.934Z,0.40
2023-02-07T02:52:57.724Z,0.40
2023-02-07T02:55:57.622Z,0.40
2023-02-07T02:58:38.552Z,0.30
2023-02-07T03:01:20.078Z,0.40
2023-02-07T03:03:52.768Z,0.40
2023-02-07T03:06:22.359Z,0.40
2023-02-07T03:09:08.034Z,0.40
2023-02-07T03:11:41.500Z,0.30
2023-02-07T03:14:44.116Z,0.40
2023-02-07T03:17:13.563Z,0.40
2023-02-07T03:19:55.407Z,0.40
2023-02-07T03:22:25.498Z,0.50
2023-02-07T03:24:56.291Z,0.30
2023-02-07T03:27:24.526Z,0.30
2023-02-07T03:29:59.128Z,0.40
2023-02-07T03:32:33.709Z,0.40
2023-02-07T03:35:12.471Z,0.40
2023-02-07T03:37:48.204Z,0.30
2023-02-07T03:40:15.865Z,0.40
2023-02-07T03:42:50.998Z,0.40
2023-02-07T03:45:20.365Z,0.50
2023-02-07T03:47:47.460Z,0.40
2023-02-07T03:50:15.159Z,0.40
2023-02-07T03:52:41.896Z,0.40
2023-02-07T03:55:09.163Z,0.40
2023-02-07T03:57:35.856Z,0.30
2023-02-07T04:00:02.966Z,0.40
2023-02-07T04:02:29.714Z,0.50
2023-02-07T04:04:56.418Z,0.30
2023-02-07T04:07:23.446Z,0.40
2023-02-07T04:09:50.966Z,0.40
2023-02-07T04:12:17.813Z,0.50
2023-02-07T04:14:44.488Z,0.30
2023-02-07T04:17:11.315Z,0.40
2023-02-07T04:19:37.967Z,0.40
2023-02-07T04:22:04.653Z,0.30
2023-02-07T04:24:36.052Z,0.30
2023-02-07T04:27:03.054Z,0.40
2023-02-07T04:29:29.756Z,0.40
2023-02-07T04:31:58.833Z,0.30
2023-02-07T04:34:26.065Z,0.40
2023-02-07T04:36:52.768Z,0.40
2023-02-07T04:39:19.876Z,0.50
2023-02-07T04:41:46.671Z,0.30
2023-02-07T04:44:13.551Z,0.40
2023-02-07T04:46:40.327Z,0.50
2023-02-07T04:49:07.059Z,0.30
2023-02-07T04:51:33.979Z,0.40
2023-02-07T04:54:00.701Z,0.40
2023-02-07T04:56:27.419Z,0.50
2023-02-07T04:58:54.326Z,0.40
2023-02-07T05:01:21.158Z,0.40
2023-02-07T05:03:47.950Z,0.40
2023-02-07T05:06:14.758Z,0.50
2023-02-07T05:08:41.522Z,0.30
2023-02-07T05:11:08.181Z,0.40
2023-02-07T05:13:35.347Z,0.40
2023-02-07T05:16:04.228Z,0.50
2023-02-07T05:18:30.996Z,0.35
2023-02-07T05:20:59.171Z,0.40
2023-02-07T05:23:26.087Z,0.40
2023-02-07T05:25:52.921Z,0.50
2023-02-07T05:28:22.243Z,0.40
2023-02-07T05:30:52.572Z,0.40
2023-02-07T05:33:19.398Z,0.50
2023-02-07T05:35:46.436Z,0.40
2023-02-07T05:38:16.148Z,0.40
2023-02-07T05:40:44.083Z,0.40
2023-02-07T05:43:12.083Z,0.50
2023-02-07T05:45:39.585Z,0.30
2023-02-07T05:48:07.226Z,0.40
2023-02-07T05:50:34.533Z,0.50
2023-02-07T05:53:01.909Z,0.30
2023-02-07T05:55:28.621Z,0.40
2023-02-07T05:57:55.332Z,0.40
2023-02-07T06:00:22.266Z,0.50
2023-02-07T06:02:49.055Z,0.40
2023-02-07T06:05:18.575Z,0.40
2023-02-07T06:07:45.250Z,0.50
2023-02-07T06:10:13.110Z,0.30
2023-02-07T06:12:40.146Z,0.40
2023-02-07T06:15:07.180Z,0.47
2023-02-07T06:17:34.026Z,0.50
2023-02-07T06:20:00.721Z,0.40
2023-02-07T06:22:27.550Z,0.40
2023-02-07T06:24:54.237Z,0.50
2023-02-07T06:27:21.167Z,0.30
2023-02-07T06:29:47.900Z,0.40
2023-02-07T06:32:14.618Z,0.50
2023-02-07T06:34:41.387Z,0.40
2023-02-07T06:37:08.173Z,0.40
2023-02-07T06:39:34.883Z,0.40
2023-02-07T06:42:01.575Z,0.57
2023-02-07T06:44:28.279Z,0.40
2023-02-07T06:46:54.974Z,0.40
2023-02-07T06:49:21.611Z,0.50
2023-02-07T06:51:48.373Z,0.30
2023-02-07T06:54:15.144Z,0.50
2023-02-07T06:56:42.088Z,0.50
2023-02-07T06:59:09.014Z,0.43
2023-02-07T07:01:35.814Z,0.40
2023-02-07T07:04:02.679Z,0.40
2023-02-07T07:06:29.480Z,0.50
2023-02-07T07:08:56.400Z,0.40
2023-02-07T07:11:23.559Z,0.40
2023-02-07T07:13:50.371Z,0.50
2023-02-07T07:16:17.318Z,0.30
2023-02-07T07:18:44.020Z,0.40
2023-02-07T07:21:12.602Z,0.50
2023-02-07T07:23:39.348Z,0.30
2023-02-07T07:26:06.282Z,0.40
2023-02-07T07:28:33.028Z,0.40
2023-02-07T07:31:08.231Z,0.50
2023-02-07T07:33:35.784Z,0.30
2023-02-07T07:36:03.511Z,0.40
2023-02-07T07:38:31.208Z,0.40
2023-02-07T07:40:58.125Z,0.50
2023-02-07T07:43:25.191Z,0.40
2023-02-07T07:45:56.812Z,0.40
2023-02-07T07:48:24.897Z,0.40
2023-02-07T07:50:52.581Z,0.40
2023-02-07T07:53:20.424Z,0.30
2023-02-07T07:55:55.245Z,0.40
2023-02-07T07:58:23.661Z,0.47
2023-02-07T08:00:50.699Z,0.40
2023-02-07T08:03:22.121Z,0.30
2023-02-07T08:05:49.594Z,0.40
2023-02-07T08:08:18.802Z,0.40
2023-02-07T08:10:47.157Z,0.40
2023-02-07T08:13:13.992Z,0.30
2023-02-07T08:15:40.792Z,0.30
2023-02-07T08:18:07.567Z,0.40
2023-02-07T08:20:34.613Z,0.40
2023-02-07T08:23:02.117Z,0.30
2023-02-07T08:25:28.999Z,0.30
2023-02-07T08:27:56.059Z,0.30
2023-02-07T08:30:22.917Z,0.40
2023-02-07T08:32:51.791Z,0.40
2023-02-07T08:35:18.912Z,0.30
2023-02-07T08:37:45.758Z,0.30
2023-02-07T08:40:13.041Z,0.40
2023-02-07T08:42:40.054Z,0.40
2023-02-07T08:45:07.358Z,0.40
2023-02-07T08:47:34.286Z,0.30
2023-02-07T08:50:01.032Z,0.30
2023-02-07T08:52:29.028Z,0.40
2023-02-07T08:54:56.493Z,0.35
2023-02-07T08:57:25.786Z,0.40
2023-02-07T08:59:53.423Z,0.40
2023-02-07T09:02:20.349Z,0.30
2023-02-07T09:04:47.602Z,0.30
2023-02-07T09:07:14.881Z,0.30
2023-02-07T09:09:41.963Z,0.30
2023-02-07T09:12:09.770Z,0.30
2023-02-07T09:14:37.160Z,0.40
2023-02-07T09:17:04.511Z,0.30
2023-02-07T09:19:31.379Z,0.40
2023-02-07T09:21:58.066Z,0.40
2023-02-07T09:24:24.759Z,0.30
2023-02-07T09:26:51.506Z,0.40
2023-02-07T09:29:18.943Z,0.30
2023-02-07T09:31:46.005Z,0.22
2023-02-07T09:34:13.351Z,0.30
2023-02-07T09:36:40.274Z,0.30
2023-02-07T09:39:07.273Z,0.30
2023-02-07T09:42:05.442Z,0.30
2023-02-07T09:44:38.326Z,0.30
2023-02-07T09:47:18.891Z,0.30
2023-02-07T09:49:51.249Z,0.30
2023-02-07T09:52:22.267Z,0.30
2023-02-07T09:54:57.151Z,0.20
2023-02-07T09:57:31.261Z,0.20
2023-02-07T10:00:07.287Z,0.20
2023-02-07T10:02:43.739Z,0.20
2023-02-07T10:05:25.553Z,0.10
2023-02-07T10:07:52.376Z,0.10
2023-02-07T10:10:41.372Z,0.10
2023-02-07T10:13:45.004Z,0.10
2023-02-07T10:16:36.114Z,0.10
2023-02-07T10:19:15.123Z,0.10
2023-02-07T10:21:51.669Z,0.10
2023-02-07T10:24:45.077Z,0.10
2023-02-07T10:27:15.802Z,0.10
2023-02-07T10:30:14.997Z,0.10
2023-02-07T10:32:43.449Z,0.10
2023-02-07T10:35:35.302Z,0.10
2023-02-07T10:38:03.139Z,0.00
2023-02-07T10:40:52.574Z,0.10
2023-02-07T10:43:32.645Z,0.10
2023-02-07T10:46:06.734Z,0.10
2023-02-07T10:48:34.011Z,0.10
2023-02-07T10:51:03.141Z,0.10
2023-02-07T10:53:56.192Z,0.10
2023-02-07T10:56:27.878Z,0.00
2023-02-07T10:58:57.192Z,0.00
2023-02-07T11:01:26.649Z,0.00
2023-02-07T11:03:54.630Z,0.00
2023-02-07T11:06:39.698Z,0.00
2023-02-07T11:09:24.389Z,0.00
2023-02-07T11:11:52.571Z,0.00
2023-02-07T11:14:28.165Z,0.00
2023-02-07T11:16:56.902Z,0.00
2023-02-07T11:19:27.013Z,0.00
2023-02-07T11:22:07.450Z,0.00
2023-02-07T11:24:37.134Z,0.00
2023-02-07T11:27:17.450Z,0.00
2023-02-07T11:29:59.657Z,0.00
2023-02-07T11:32:28.278Z,0.00
2023-02-07T11:35:01.654Z,0.00
2023-02-07T11:37:32.517Z,0.00
2023-02-07T11:40:23.551Z,0.00
2023-02-07T11:43:10.782Z,0.00
2023-02-07T11:45:42.441Z,0.00
2023-02-07T11:48:25.769Z,0.00
2023-02-07T11:50:55.748Z,0.00
2023-02-07T11:53:37.095Z,0.00
2023-02-07T11:56:04.347Z,0.00
2023-02-07T11:58:37.720Z,0.00
2023-02-07T12:01:06.709Z,0.00
2023-02-07T12:03:41.962Z,0.00
2023-02-07T12:06:15.725Z,0.00
2023-02-07T12:08:45.392Z,0.00
2023-02-07T12:11:24.044Z,0.10
2023-02-07T12:13:56.964Z,0.10
2023-02-07T12:16:54.870Z,0.10
2023-02-07T12:19:47.128Z,0.10
2023-02-07T12:22:21.221Z,0.10
2023-02-07T12:25:21.118Z,0.15
2023-02-07T12:27:52.004Z,0.20
2023-02-07T12:30:40.938Z,0.30
2023-02-07T12:33:16.495Z,0.20
2023-02-07T12:36:19.428Z,0.30
2023-02-07T12:38:53.124Z,0.20
2023-02-07T12:41:26.518Z,0.20
2023-02-07T12:44:09.568Z,0.30
2023-02-07T12:47:01.114Z,0.30
2023-02-07T12:50:02.125Z,0.30
2023-02-07T12:52:58.256Z,0.30
2023-02-07T12:55:44.991Z,0.30
2023-02-07T12:58:40.122Z,0.30
2023-02-07T13:01:28.859Z,0.30
2023-02-07T13:04:48.781Z,0.40
2023-02-07T13:07:24.525Z,0.30
2023-02-07T13:09:54.288Z,0.30
2023-02-07T13:12:30.562Z,0.30
2023-02-07T13:15:21.446Z,0.30
2023-02-07T13:18:04.849Z,0.38
2023-02-07T13:20:57.128Z,0.30
2023-02-07T13:23:27.807Z,0.30
2023-02-07T13:26:04.498Z,0.30
2023-02-07T13:28:40.510Z,0.22
2023-02-07T13:31:10.478Z,0.25
2023-02-07T13:33:40.054Z,0.30
2023-02-07T13:36:28.595Z,0.30
2023-02-07T13:39:02.648Z,0.30
2023-02-07T13:41:37.338Z,0.30
2023-02-07T13:44:20.262Z,0.30
2023-02-07T13:46:56.373Z,0.30
2023-02-07T13:49:37.353Z,0.20
2023-02-07T13:52:06.159Z,0.30
2023-02-07T13:54:36.328Z,0.30
2023-02-07T13:57:22.262Z,0.30
2023-02-07T14:00:20.018Z,0.30
2023-02-07T14:02:58.609Z,0.30
2023-02-07T14:05:38.333Z,0.30
2023-02-07T14:08:23.044Z,0.20
2023-02-07T14:10:52.025Z,0.30
2023-02-07T14:13:31.966Z,0.30
2023-02-07T14:16:11.658Z,0.40
2023-02-07T14:18:51.483Z,0.30
2023-02-07T14:21:21.453Z,0.30
2023-02-07T14:24:18.449Z,0.30
2023-02-07T14:26:47.925Z,0.20
2023-02-07T14:29:20.780Z,0.25
2023-02-07T14:32:10.141Z,0.30
2023-02-07T14:34:58.731Z,0.30
2023-02-07T14:37:38.773Z,0.30
2023-02-07T14:40:31.867Z,0.30
2023-02-07T14:43:08.699Z,0.20
2023-02-07T14:45:37.269Z,0.30
2023-02-07T14:48:07.052Z,0.30
2023-02-07T14:50:35.217Z,0.30
2023-02-07T14:53:05.968Z,0.40
2023-02-07T14:55:50.553Z,0.40
2023-02-07T14:58:38.641Z,0.30
2023-02-07T15:01:12.250Z,0.30
2023-02-07T15:03:39.653Z,0.30
2023-02-07T15:06:30.659Z,0.30
2023-02-07T15:09:01.341Z,0.30
2023-02-07T15:11:29.537Z,0.30
2023-02-07T15:13:59.498Z,0.20
2023-02-07T15:16:29.993Z,0.30
2023-02-07T15:19:23.380Z,0.30
2023-02-07T15:21:50.674Z,0.30
2023-02-07T15:24:51.160Z,0.30
2023-02-07T15:27:27.267Z,0.40
2023-02-07T15:29:58.074Z,0.40
2023-02-07T15:32:29.799Z,0.40
2023-02-07T15:34:58.192Z,0.30
2023-02-07T15:37:26.165Z,0.30
2023-02-07T15:39:57.000Z,0.30
2023-02-07T15:42:24.116Z,0.30
2023-02-07T15:44:51.919Z,0.30
2023-02-07T15:47:27.915Z,0.30
2023-02-07T15:50:04.937Z,0.40
2023-02-07T15:52:40.143Z,0.30
2023-02-07T15:55:23.322Z,0.30
2023-02-07T15:57:50.835Z,0.30
2023-02-07T16:00:19.681Z,0.30
2023-02-07T16:03:14.131Z,0.40
2023-02-07T16:05:41.836Z,0.30
2023-02-07T16:08:37.837Z,0.35
2023-02-07T16:11:23.420Z,0.30
2023-02-07T16:13:53.061Z,0.30
2023-02-07T16:16:27.436Z,0.30
2023-02-07T16:19:28.819Z,0.30
2023-02-07T16:22:15.285Z,0.30
2023-02-07T16:24:44.823Z,0.30
2023-02-07T16:27:20.701Z,0.30
2023-02-07T16:29:48.250Z,0.30
2023-02-07T16:32:15.950Z,0.30
2023-02-07T16:34:58.610Z,0.30
2023-02-07T16:37:27.861Z,0.30
2023-02-07T16:39:54.694Z,0.30
2023-02-07T16:42:21.696Z,0.30
2023-02-07T16:44:49.032Z,0.30
2023-02-07T16:47:17.368Z,0.30
2023-02-07T16:49:45.774Z,0.40
2023-02-07T16:52:12.623Z,0.40
2023-02-07T16:54:39.303Z,0.40
2023-02-07T16:57:06.086Z,0.40
2023-02-07T16:59:32.880Z,0.40
2023-02-07T17:01:59.844Z,0.30
2023-02-07T17:04:26.565Z,0.30
2023-02-07T17:06:53.317Z,0.30
2023-02-07T17:09:24.605Z,0.30
2023-02-07T17:11:53.111Z,0.40
2023-02-07T17:14:20.439Z,0.40
2023-02-07T17:16:47.624Z,0.40
2023-02-07T17:19:27.325Z,0.40
2023-02-07T17:21:56.463Z,0.40
2023-02-07T17:24:23.202Z,0.40
2023-02-07T17:26:53.056Z,0.40
2023-02-07T17:29:20.153Z,0.35
2023-02-07T17:31:48.849Z,0.30
2023-02-07T17:34:16.005Z,0.30
2023-02-07T17:36:46.809Z,0.40
2023-02-07T17:39:15.056Z,0.40
2023-02-07T17:41:41.794Z,0.40
2023-02-07T17:44:08.785Z,0.40
2023-02-07T17:46:35.815Z,0.40
2023-02-07T17:49:02.776Z,0.30
2023-02-07T17:51:29.996Z,0.30
2023-02-07T17:53:57.181Z,0.30
2023-02-07T17:56:29.411Z,0.40
2023-02-07T17:58:59.380Z,0.30
2023-02-07T18:01:26.415Z,0.40
2023-02-07T18:03:54.781Z,0.43
2023-02-07T18:06:26.712Z,0.40
2023-02-07T18:08:56.453Z,0.30
2023-02-07T18:11:24.706Z,0.30
2023-02-07T18:13:51.473Z,0.40
2023-02-07T18:16:24.261Z,0.40
2023-02-07T18:18:52.539Z,0.40
2023-02-07T18:21:20.000Z,0.40
2023-02-07T18:23:46.879Z,0.40
2023-02-07T18:26:15.140Z,0.30
2023-02-07T18:28:43.435Z,0.30
2023-02-07T18:31:16.221Z,0.30
2023-02-07T18:33:43.589Z,0.40
2023-02-07T18:36:10.795Z,0.40
2023-02-07T18:38:37.749Z,0.40
2023-02-07T18:41:12.460Z,0.30
2023-02-07T18:43:40.419Z,0.30
2023-02-07T18:46:19.128Z,0.30
2023-02-07T18:48:46.254Z,0.30
2023-02-07T18:51:14.889Z,0.40
2023-02-07T18:53:42.280Z,0.40
2023-02-07T18:56:12.293Z,0.40
2023-02-07T18:58:39.609Z,0.30
2023-02-07T19:01:13.123Z,0.30
2023-02-07T19:03:39.848Z,0.30
2023-02-07T19:06:07.708Z,0.40
2023-02-07T19:08:34.859Z,0.40
2023-02-07T19:11:04.604Z,0.40
2023-02-07T19:13:32.962Z,0.30
2023-02-07T19:16:08.724Z,0.30
2023-02-07T19:18:35.461Z,0.30
2023-02-07T19:21:06.855Z,0.40
2023-02-07T19:23:34.238Z,0.40
2023-02-07T19:26:01.897Z,0.50
2023-02-07T19:28:28.748Z,0.30
2023-02-07T19:30:55.722Z,0.30
2023-02-07T19:33:23.139Z,0.35
2023-02-07T19:35:50.540Z,0.40
2023-02-07T19:38:17.208Z,0.40
2023-02-07T19:40:45.091Z,0.40
2023-02-07T19:43:12.573Z,0.30
2023-02-07T19:45:39.388Z,0.30
2023-02-07T19:48:06.240Z,0.40
2023-02-07T19:50:32.995Z,0.40
2023-02-07T19:52:59.704Z,0.43
2023-02-07T19:55:26.435Z,0.30
2023-02-07T19:57:54.830Z,0.30
2023-02-07T20:00:21.776Z,0.40
2023-02-07T20:02:48.397Z,0.40
2023-02-07T20:05:15.264Z,0.40
2023-02-07T20:07:42.132Z,0.30
2023-02-07T20:10:10.380Z,0.40
2023-02-07T20:12:37.119Z,0.40
2023-02-07T20:15:04.404Z,0.50
2023-02-07T20:17:31.223Z,0.30
2023-02-07T20:19:58.020Z,0.40
2023-02-07T20:22:24.898Z,0.40
2023-02-07T20:24:51.650Z,0.50
2023-02-07T20:27:18.826Z,0.30
2023-02-07T20:29:45.477Z,0.38
2023-02-07T20:32:14.118Z,0.40
2023-02-07T20:34:40.979Z,0.50
2023-02-07T20:37:08.647Z,0.47
2023-02-07T20:39:35.741Z,0.40
2023-02-07T20:42:02.565Z,0.40
2023-02-07T20:44:29.593Z,0.50
2023-02-07T20:46:59.366Z,0.30
2023-02-07T20:49:29.599Z,0.40
2023-02-07T20:51:58.127Z,0.40
2023-02-07T20:54:27.315Z,0.50
2023-02-07T20:56:55.203Z,0.30
2023-02-07T20:59:26.414Z,0.40
2023-02-07T21:01:53.758Z,0.40
2023-02-07T21:04:20.881Z,0.40
2023-02-07T21:06:47.934Z,0.40
2023-02-07T21:09:15.367Z,0.40
2023-02-07T21:11:50.368Z,0.50
2023-02-07T21:14:25.477Z,0.40
2023-02-07T21:16:54.006Z,0.40
2023-02-07T21:19:23.799Z,0.40
2023-02-07T21:21:51.214Z,0.50
2023-02-07T21:24:18.591Z,0.30
2023-02-07T21:26:48.746Z,0.40
2023-02-07T21:29:15.842Z,0.40
2023-02-07T21:31:42.775Z,0.40
2023-02-07T21:34:09.861Z,0.50
2023-02-07T21:36:40.306Z,0.30
2023-02-07T21:39:10.514Z,0.40
2023-02-07T21:41:39.593Z,0.50
2023-02-07T21:44:06.424Z,0.45
2023-02-07T21:46:35.636Z,0.40
2023-02-07T21:49:08.614Z,0.50
2023-02-07T21:51:36.813Z,0.52
2023-02-07T21:54:07.174Z,0.40
2023-02-07T21:56:36.938Z,0.50
2023-02-07T21:59:11.053Z,0.50
2023-02-07T22:01:37.794Z,0.40
2023-02-07T22:04:06.228Z,0.40
2023-02-07T22:06:33.483Z,0.50
2023-02-07T22:09:02.002Z,0.30
2023-02-07T22:11:32.563Z,0.40
2023-02-07T22:13:59.982Z,0.57
2023-02-07T22:16:28.377Z,0.40
2023-02-07T22:18:56.898Z,0.40
2023-02-07T22:21:28.771Z,0.50
2023-02-07T22:23:56.462Z,0.40
2023-02-07T22:26:23.754Z,0.40
2023-02-07T22:28:51.113Z,0.50
2023-02-07T22:31:23.752Z,0.40
2023-02-07T22:33:51.896Z,0.40
2023-02-07T22:36:24.597Z,0.60
2023-02-07T22:38:51.353Z,0.43
2023-02-07T22:41:19.088Z,0.40
2023-02-07T22:43:46.256Z,0.40
2023-02-07T22:46:18.736Z,0.60
2023-02-07T22:48:46.065Z,0.32
2023-02-07T22:51:20.912Z,0.50
2023-02-07T22:53:48.749Z,0.60
2023-02-07T22:56:16.138Z,0.40
2023-02-07T22:58:43.078Z,0.47
2023-02-07T23:01:23.264Z,0.60
2023-02-07T23:03:51.101Z,0.40
2023-02-07T23:06:17.968Z,0.50
2023-02-07T23:08:47.476Z,0.60
2023-02-07T23:11:15.733Z,0.40
2023-02-07T23:13:43.253Z,0.50
2023-02-07T23:16:19.092Z,0.60
2023-02-07T23:18:45.805Z,0.40
2023-02-07T23:21:15.401Z,0.50
2023-02-07T23:23:42.760Z,0.50
2023-02-07T23:26:11.558Z,0.40
2023-02-07T23:28:39.246Z,0.50
2023-02-07T23:31:07.955Z,0.60
2023-02-07T23:37:16.949Z,0.40
2023-02-07T23:39:44.173Z,0.50
2023-02-07T23:42:10.935Z,0.60
2023-02-07T23:44:37.772Z,0.40
2023-02-07T23:47:05.400Z,0.50
2023-02-07T23:49:32.175Z,0.60
2023-02-07T23:51:58.925Z,0.40
2023-02-07T23:54:25.570Z,0.50
2023-02-07T23:56:52.395Z,0.45
2023-02-07T23:59:19.261Z,0.50
